• Join FlightAware (Why Join?)
  • Login
  • US Flag 
Rudolph Flight #1: Arrived! 
06:16AM EST


 

Airport Tracker/Info


-or-


 

Live Flight TrackerFlight Track Log ✈ SWA303 ✈ 05-May-2013 ✈ KDEN - KIAD

Flight Track Log - Related Links

Times and Time Zones

All times are in EDT time to prevent confusion due to time zone crossing. See the SWA303 flight status page for this flight to view local times or setup timezone preferences in your user account.

Time Position Orientation Groundspeed Altitude Reporting Facility
EDT Latitude Longitude Course Direction KTS MPH feet Rate Location/Type
02:23PM 39.8167 -104.6500 158° South 187 215 6,500  Level Denver TRACON
02:24PM 39.7947 -104.6383 158° South 196 226 7,200 2,160 Climbing Denver Center
02:25PM 39.7569 -104.5819 131° Southeast 214 246 9,900 2,040 Climbing Denver Center
02:26PM 39.7719 -104.4753 80° East 286 329 11,500 2,160 Climbing Denver Center
02:27PM 39.7906 -104.3539 79° East 342 394 14,400 2,760 Climbing Denver Center
02:28PM 39.8111 -104.2189 79° East 361 415 17,300 2,580 Climbing Denver Center
02:29PM 39.8311 -104.0856 79° East 378 435 19,800 2,400 Climbing Denver Center
02:30PM 39.8531 -103.9342 79° East 395 455 22,300 2,220 Climbing Denver Center
02:31PM 39.8744 -103.7889 79° East 409 471 24,400 1,800 Climbing Denver Center
02:32PM 39.8956 -103.6361 80° East 418 481 26,100 1,620 Climbing Denver Center
02:33PM 39.9131 -103.4736 82° East 447 514 27,800 1,560 Climbing Denver Center
02:34PM 39.9339 -103.3064 81° East 460 529 29,400 1,500 Climbing Denver Center
02:35PM 39.9567 -103.1067 81° East 472 543 30,900 1,260 Climbing Denver Center
02:36PM 39.9761 -102.9300 82° East 487 560 32,100 1,080 Climbing Denver Center
02:37PM 39.9933 -102.7433 83° East 509 586 33,200 1,380 Climbing Denver Center
02:38PM 40.0133 -102.5617 82° East 513 590 35,000 1,800 Climbing Denver Center
02:39PM 40.0333 -102.3644 82° East 495 570 37,000 960 Climbing Denver Center
02:40PM 40.0517 -102.1983 82° East 485 558 37,000  Level Denver Center
02:41PM 40.0681 -102.0317 83° East 486 559 37,000  Level Denver Center
02:43PM 40.0864 -101.8375 83° East 484 557 37,000  Level Denver Center
02:44PM 40.1036 -101.6719 82° East 484 557 37,000  Level Denver Center
02:45PM 40.1214 -101.4767 83° East 486 559 37,000  Level Denver Center
02:46PM 40.1372 -101.3108 83° East 483 556 37,000  Level Denver Center
02:47PM 40.1556 -101.1183 83° East 480 552 37,000  Level Denver Center
02:48PM 40.1711 -100.9522 83° East 482 555 37,000  Level Denver Center
02:49PM 40.1889 -100.7603 83° East 479 551 37,000  Level Denver Center
02:50PM 40.2028 -100.5953 84° East 480 552 37,000  Level Denver Center
02:51PM 40.2064 -100.4042 89° East 473 544 37,000  Level Denver Center
02:52PM 40.2106 -100.2381 88° East 478 550 37,000  Level Denver Center
02:53PM 40.2125 -100.0447 89° East 478 550 37,000  Level Denver Center
02:54PM 40.2150 -99.8828 89° East 477 549 37,000  Level Denver Center
02:55PM 40.2167 -99.7089 89° East 478 550 37,000  Level Denver Center
02:56PM 40.2181 -99.5000 89° East 480 552 37,000  Level Denver Center
02:57PM 40.2203 -99.3256 89° East 481 554 37,000  Level Denver Center
02:58PM 40.2208 -99.1525 90° East 480 552 37,000  Level Denver Center
02:59PM 40.2219 -98.9808 89° East 475 547 37,000  Level Denver Center
03:00PM 40.2231 -98.7792 90° East 470 541 37,000  Level Minneapolis Center
03:01PM 40.2222 -98.6125 90° East 464 534 37,000  Level Minneapolis Center
03:02PM 40.2225 -98.4469 90° East 459 528 37,000  Level Minneapolis Center
03:03PM 40.2222 -98.2817 90° East 458 527 37,000  Level Minneapolis Center
03:04PM 40.2217 -98.1172 90° East 455 524 37,000  Level Minneapolis Center
03:05PM 40.2219 -97.9525 90° East 454 522 37,000  Level Minneapolis Center
03:06PM 40.2203 -97.7511 91° East 460 529 37,000  Level Minneapolis Center
03:07PM 40.2181 -97.5828 91° East 462 532 37,000  Level Minneapolis Center
03:08PM 40.2175 -97.4131 90° East 466 536 37,000  Level Minneapolis Center
03:09PM 40.2156 -97.2319 91° East 463 533 37,000  Level Minneapolis Center
03:10PM 40.2133 -97.0631 91° East 463 533 37,000  Level Minneapolis Center
03:11PM 40.2108 -96.8986 91° East 458 527 37,000  Level Minneapolis Center
03:13PM 40.2089 -96.7328 91° East 458 527 37,000  Level Minneapolis Center
03:14PM 40.2072 -96.5694 91° East 454 522 37,000  Level Minneapolis Center
03:15PM 40.2028 -96.2586 91° East 451 519 37,000  Level Kansas City Center
03:16PM 40.2006 -96.2119 94° East 448 516 37,000  Level Minneapolis Center
03:17PM 40.1992 -96.0167 90° East 449 517 37,000  Level Minneapolis Center
03:18PM 40.1989 -95.8525 90° East 453 521 37,000  Level Minneapolis Center
03:19PM 40.1978 -95.6925 90° East 446 513 37,000  Level Minneapolis Center
03:20PM 40.1961 -95.5339 91° East 441 507 37,000  Level Minneapolis Center
03:21PM 40.1958 -95.3750 90° East 439 505 37,000  Level Minneapolis Center
03:22PM 40.1936 -95.2164 91° East 438 504 37,000  Level Minneapolis Center
03:23PM 40.1917 -95.0603 91° East 433 498 37,000  Level Minneapolis Center
03:24PM 40.1900 -94.8739 91° East 430 495 37,000  Level Minneapolis Center
03:25PM 40.1881 -94.7181 91° East 429 494 37,000 60 Level Minneapolis Center
03:26PM 40.1858 -94.5619 91° East 430 495 37,200 360 Climbing Minneapolis Center
03:27PM 40.1814 -94.3928 92° East 433 498 37,800 600 Climbing Minneapolis Center
03:28PM 40.1792 -94.2944 92° East 440 506 38,200 720 Climbing Kansas City Center
03:29PM 40.1761 -94.1394 91° East 445 512 39,000 360 Climbing Kansas City Center
03:30PM 40.1708 -93.9739 92° East 446 513 39,000  Level Kansas City Center
03:31PM 40.1675 -93.8167 92° East 439 505 39,000  Level Kansas City Center
03:32PM 40.1631 -93.6283 92° East 437 503 39,000  Level Kansas City Center
03:33PM 40.1586 -93.4703 92° East 438 504 39,000  Level Kansas City Center
03:34PM 40.1556 -93.3139 91° East 436 502 39,000  Level Kansas City Center
03:35PM 40.1525 -93.1561 91° East 439 505 39,000  Level Kansas City Center
03:36PM 40.1469 -92.9939 93° East 438 504 39,000  Level Kansas City Center
03:37PM 40.1406 -92.8175 93° East 437 503 39,000  Level Kansas City Center
03:38PM 40.1367 -92.6661 92° East 435 501 39,000  Level Kansas City Center
03:39PM 40.1267 -92.4908 94° East 432 497 39,000  Level Kansas City Center
03:40PM 40.1142 -92.3517 97° East 433 498 39,000  Level Kansas City Center
03:41PM 40.0964 -92.1631 97° East 439 505 39,000  Level Kansas City Center
03:42PM 40.0811 -92.0053 97° East 442 509 39,000  Level Kansas City Center
03:43PM 40.0672 -91.8492 97° East 440 506 39,000  Level Kansas City Center
03:44PM 40.0514 -91.6914 97° East 442 509 39,000  Level Kansas City Center
03:45PM 40.0358 -91.5336 97° East 442 509 39,000  Level Kansas City Center
03:46PM 40.0181 -91.3489 97° East 435 501 39,000  Level Kansas City Center
03:47PM 40.0031 -91.1953 97° East 431 496 39,000  Level Kansas City Center
03:48PM 39.9864 -91.0436 98° East 428 493 39,000  Level Kansas City Center
03:49PM 39.9700 -90.8839 98° East 423 487 39,000  Level Kansas City Center
03:50PM 39.9558 -90.7394 97° East 411 473 39,000  Level Kansas City Center
03:52PM 39.9406 -90.5958 98° East 404 465 39,000  Level Kansas City Center
03:53PM 39.9247 -90.4511 98° East 405 466 39,000  Level Kansas City Center
03:54PM 39.9064 -90.2758 98° East 407 468 39,000  Level Kansas City Center
03:55PM 39.8900 -90.1314 98° East 407 468 39,000  Level Kansas City Center
03:56PM 39.8742 -89.9842 98° East 410 472 39,000  Level Kansas City Center
03:57PM 39.8572 -89.8364 98° East 413 475 39,000  Level Kansas City Center
03:58PM 39.8406 -89.6900 98° East 413 475 39,000  Level Kansas City Center
03:59PM 39.8406 -89.5372 90° East 417 480 39,000  Level Kansas City Center
04:01PM 39.8419 -89.2239 90° East 420 483 39,000  Level Indianapolis Center
04:02PM 39.8411 -89.0753 90° East 416 479 39,000  Level Indianapolis Center
04:03PM 39.8419 -88.9058 90° East 419 482 39,000  Level Kansas City Center
04:04PM 39.8425 -88.7522 90° East 423 487 39,000  Level Kansas City Center
04:05PM 39.8419 -88.5992 90° East 424 488 39,000  Level Kansas City Center
04:06PM 39.8419 -88.4125 90° East 429 494 39,000  Level Kansas City Center
04:07PM 39.8422 -88.2558 90° East 432 497 39,000  Level Kansas City Center
04:08PM 39.8403 -88.1192 91° East 435 501 39,000  Level Indianapolis Center
04:09PM 39.8383 -87.9608 91° East 439 505 39,000  Level Indianapolis Center
04:10PM 39.8364 -87.7694 91° East 441 507 39,000  Level Indianapolis Center
04:11PM 39.8350 -87.6106 91° East 441 507 39,000  Level Indianapolis Center
04:12PM 39.8325 -87.4572 91° East 430 495 39,000  Level Indianapolis Center
04:13PM 39.8322 -87.3028 90° East 428 493 39,000  Level Indianapolis Center
04:14PM 39.8283 -87.1478 92° East 431 496 39,000  Level Indianapolis Center
04:15PM 39.8264 -86.9922 91° East 431 496 39,000  Level Indianapolis Center
04:16PM 39.8233 -86.8078 91° East 426 490 39,000  Level Indianapolis Center
04:17PM 39.8203 -86.6550 91° East 425 489 39,000  Level Indianapolis Center
04:18PM 39.8178 -86.5031 91° East 421 484 39,000  Level Indianapolis Center
04:19PM 39.8158 -86.3389 91° East 421 484 39,000  Level Indianapolis Center
04:21PM 39.8254 -86.1572 86° East  Level FlightAware Approximate
04:21PM 39.8350 -86.0339 86° East 427 491 39,000  Level Indianapolis Center
04:22PM 39.8433 -85.8803 86° East 426 490 39,000  Level Indianapolis Center
04:23PM 39.8519 -85.7264 86° East 428 493 39,000  Level Indianapolis Center
04:24PM 39.8603 -85.5703 86° East 433 498 39,000  Level Indianapolis Center
04:26PM 39.8706 -85.3825 86° East 437 503 39,000  Level Indianapolis Center
04:27PM 39.8778 -85.2250 87° East 438 504 39,000  Level Indianapolis Center
04:28PM 39.8869 -85.0689 86° East 436 502 39,000  Level Indianapolis Center
04:29PM 39.8939 -84.9139 87° East 433 498 39,000  Level Indianapolis Center
04:30PM 39.9006 -84.7467 87° East 431 496 39,000  Level Indianapolis Center
04:31PM 39.9089 -84.5889 86° East 433 498 39,000  Level Indianapolis Center
04:32PM 39.9156 -84.4317 87° East 432 497 39,000  Level Indianapolis Center
04:33PM 39.9217 -84.2747 87° East 431 496 39,000  Level Indianapolis Center
04:34PM 39.9292 -84.0928 87° East 429 494 39,000  Level Indianapolis Center
04:35PM 39.9358 -83.9372 87° East 427 491 39,000  Level Indianapolis Center
04:36PM 39.9417 -83.7806 87° East 427 491 39,000  Level Indianapolis Center
04:37PM 39.9472 -83.6228 87° East 428 493 39,000  Level Indianapolis Center
04:38PM 39.9542 -83.4611 87° East 431 496 39,000  Level Indianapolis Center
04:39PM 39.9597 -83.3000 87° East 434 499 39,000  Level Indianapolis Center
04:40PM 39.9647 -83.1378 88° East 440 506 39,000  Level Indianapolis Center
04:41PM 39.9669 -82.9786 89° East 436 502 39,000  Level Indianapolis Center
04:42PM 39.9725 -82.8183 87° East 437 503 39,000  Level Indianapolis Center
04:43PM 39.9781 -82.6589 87° East 437 503 39,000  Level Indianapolis Center
04:44PM 39.9828 -82.5003 88° East 436 502 39,000  Level Indianapolis Center
04:45PM 39.9872 -82.3142 88° East 435 501 39,000  Level Indianapolis Center
04:46PM 39.9914 -82.1553 88° East 435 501 39,000  Level Indianapolis Center
04:47PM 39.9947 -81.9961 88° East 435 501 39,000  Level Indianapolis Center
04:48PM 39.9992 -81.8383 88° East 433 498 39,000  Level Indianapolis Center
04:49PM 40.0017 -81.6794 89° East 432 497 39,000  Level Indianapolis Center
04:50PM 40.0036 -81.5225 89° East 431 496 39,000  Level Indianapolis Center
04:51PM 39.9700 -81.3722 106° East 429 494 39,000  Level Indianapolis Center
04:52PM 39.9258 -81.2086 109° East 421 484 39,000 -120 Level Indianapolis Center
04:53PM 39.8867 -81.0611 109° East 426 490 38,800 -420 Descending Indianapolis Center
04:54PM 39.8706 -80.9997 109° East 424 488 38,400 -840 Descending Cleveland Center
04:55PM 39.8069 -80.7661 109° East 432 497 37,100 -840 Descending Indianapolis Center
04:56PM 39.7919 -80.7047 108° East 429 494 36,800 -780 Descending Cleveland Center
04:57PM 39.7503 -80.5506 109° East 435 501 36,000 -960 Descending Cleveland Center
04:58PM 39.7106 -80.4022 109° East 435 501 34,900 -1,080 Descending Cleveland Center
04:59PM 39.6686 -80.2542 110° East 435 501 33,900 -1,620 Descending Cleveland Center
05:01PM 39.5922 -79.9786 110° East 440 506 30,400 -1,740 Descending Washington Center
05:02PM 39.5519 -79.8225 108° East 446 513 29,100 -1,140 Descending Washington Center
05:04PM 39.4978 -79.5156 103° East 440 506 27,000 -720 Descending Washington Center
05:05PM 39.4711 -79.3717 103° East 423 487 27,000 -600 Level Washington Center
05:06PM 39.4442 -79.2250 103° East 416 479 25,900 -1,680 Descending Washington Center
05:07PM 39.4192 -79.0867 103° East 416 479 23,700 -2,160 Descending Washington Center
05:08PM 39.3958 -78.9539 103° East 397 457 21,600 -1,860 Descending Washington Center
05:09PM 39.3667 -78.8050 104° East 383 441 20,000 -2,040 Descending Washington Center
05:10PM 39.3486 -78.6994 102° East 362 417 17,700 -2,280 Descending Washington Center
05:11PM 39.3267 -78.5753 103° East 357 411 15,600 -2,040 Descending Washington Center
05:12PM 39.3044 -78.4589 104° East 345 397 13,700 -1,740 Descending Washington Center
05:13PM 39.2883 -78.3431 100° East 334 384 12,200 -1,200 Descending Washington Center
05:14PM 39.2667 -78.1500 98° East 283 326 10,500 -1,020 Descending Potomac TRACON
05:15PM 39.2658 -78.1331 94° East 301 346 10,200 -1,320 Descending Washington Center
05:16PM 39.2536 -78.0281 99° East 284 327 8,800 -1,200 Descending Washington Center
05:17PM 39.2533 -77.9394 90° East 263 303 7,900 -900 Descending Washington Center
05:18PM 39.2694 -77.8542 76° East 246 283 7,000 -1,080 Descending Washington Center
05:19PM 39.2833 -77.7717 78° East 235 270 5,800 -1,020 Descending Washington Center
05:20PM 39.2994 -77.6942 75° East 230 265 5,000 -300 Descending Washington Center
05:21PM 39.3167 -77.5500 81° East 226 260 5,000  Level Potomac TRACON
05:23PM 39.3000 -77.4833 108° East 224 258 5,000  Level Potomac TRACON
05:24PM 39.2333 -77.4667 169° South 223 257 5,000 -300 Level Potomac TRACON
05:25PM 39.1833 -77.4667 180° South 191 220 4,400 -840 Descending Potomac TRACON
05:26PM 39.1333 -77.4667 180° South 195 224 3,400 -1,020 Descending Potomac TRACON
05:26PM 39.0833 -77.4667 180° South 193 222 2,500 -1,020 Descending Potomac TRACON
05:27PM 39.0333 -77.4667 180° South 172 198 1,500 -900 Descending Potomac TRACON
05:29PM 38.9833 -77.4667 180° South 135 155 700 -780 Descending Potomac TRACON